<?xml version="1.0" encoding="UTF-8" standalone="no" ?>
<gpx xmlns="http://www.topografix.com/GPX/1/1" xmlns:xsi="http://www.w3.org/2001/XMLSchema-instance" xsi:schemaLocation="http://www.topografix.com/GPX/1/1 http://www.topografix.com/GPX/1/1/gpx.xsd" version="1.1" creator="VisuGPX - https://www.visugpx.com">
  <metadata>
    <name>lacapelle multitrace</name>
  </metadata>
  <trk>
    <name><![CDATA[12292306-grand tour capelain]]></name>
    <extensions>
      <line xmlns="http://www.topografix.com/GPX/gpx_style/0/2">
        <color>FF0000</color>
        <width>4</width>
      </line>
    </extensions>
    <trkseg>
      <trkpt lat="44.60071" lon="0.89512">
        <ele>173</ele>
        <time>2020-12-13T19:49:36Z</time>
      </trkpt>
      <trkpt lat="44.60061" lon="0.8965">
        <ele>171</ele>
        <time>2020-12-13T19:49:59Z</time>
      </trkpt>
      <trkpt lat="44.60048" lon="0.89672">
        <ele>170</ele>
        <time>2020-12-13T19:50:04Z</time>
      </trkpt>
      <trkpt lat="44.60032" lon="0.89737">
        <ele>170</ele>
        <time>2020-12-13T19:50:15Z</time>
      </trkpt>
      <trkpt lat="44.60031" lon="0.89809">
        <ele>166</ele>
        <time>2020-12-13T19:50:27Z</time>
      </trkpt>
      <trkpt lat="44.6001" lon="0.89866">
        <ele>162</ele>
        <time>2020-12-13T19:50:38Z</time>
      </trkpt>
      <trkpt lat="44.6002" lon="0.89892">
        <ele>161</ele>
        <time>2020-12-13T19:50:43Z</time>
      </trkpt>
      <trkpt lat="44.60027" lon="0.89924">
        <ele>160</ele>
        <time>2020-12-13T19:50:48Z</time>
      </trkpt>
      <trkpt lat="44.59989" lon="0.90044">
        <ele>160</ele>
        <time>2020-12-13T19:51:10Z</time>
      </trkpt>
      <trkpt lat="44.59972" lon="0.90078">
        <ele>162</ele>
        <time>2020-12-13T19:51:17Z</time>
      </trkpt>
      <trkpt lat="44.59954" lon="0.90128">
        <ele>164</ele>
        <time>2020-12-13T19:51:26Z</time>
      </trkpt>
      <trkpt lat="44.59961" lon="0.90175">
        <ele>166</ele>
        <time>2020-12-13T19:51:34Z</time>
      </trkpt>
      <trkpt lat="44.59974" lon="0.9021">
        <ele>168</ele>
        <time>2020-12-13T19:51:41Z</time>
      </trkpt>
      <trkpt lat="44.59992" lon="0.9027">
        <ele>172</ele>
        <time>2020-12-13T19:51:52Z</time>
      </trkpt>
      <trkpt lat="44.60003" lon="0.90456">
        <ele>179</ele>
        <time>2020-12-13T19:52:23Z</time>
      </trkpt>
      <trkpt lat="44.60006" lon="0.90554">
        <ele>185</ele>
        <time>2020-12-13T19:52:39Z</time>
      </trkpt>
      <trkpt lat="44.59986" lon="0.90645">
        <ele>190</ele>
        <time>2020-12-13T19:52:55Z</time>
      </trkpt>
      <trkpt lat="44.59966" lon="0.90706">
        <ele>191</ele>
        <time>2020-12-13T19:53:06Z</time>
      </trkpt>
      <trkpt lat="44.59954" lon="0.9081">
        <ele>195</ele>
        <time>2020-12-13T19:53:24Z</time>
      </trkpt>
      <trkpt lat="44.59947" lon="0.90896">
        <ele>199</ele>
        <time>2020-12-13T19:53:38Z</time>
      </trkpt>
      <trkpt lat="44.59886" lon="0.90975">
        <ele>210</ele>
        <time>2020-12-13T19:53:57Z</time>
      </trkpt>
      <trkpt lat="44.59815" lon="0.91077">
        <ele>218</ele>
        <time>2020-12-13T19:54:21Z</time>
      </trkpt>
      <trkpt lat="44.59782" lon="0.91131">
        <ele>221</ele>
        <time>2020-12-13T19:54:33Z</time>
      </trkpt>
      <trkpt lat="44.59771" lon="0.91168">
        <ele>223</ele>
        <time>2020-12-13T19:54:40Z</time>
      </trkpt>
      <trkpt lat="44.59747" lon="0.91272">
        <ele>224</ele>
        <time>2020-12-13T19:54:58Z</time>
      </trkpt>
      <trkpt lat="44.59704" lon="0.91548">
        <ele>225</ele>
        <time>2020-12-13T19:55:45Z</time>
      </trkpt>
      <trkpt lat="44.59691" lon="0.91599">
        <ele>227</ele>
        <time>2020-12-13T19:55:54Z</time>
      </trkpt>
      <trkpt lat="44.59666" lon="0.91866">
        <ele>237</ele>
        <time>2020-12-13T19:56:39Z</time>
      </trkpt>
      <trkpt lat="44.59652" lon="0.91974">
        <ele>239</ele>
        <time>2020-12-13T19:56:57Z</time>
      </trkpt>
      <trkpt lat="44.59695" lon="0.91927">
        <ele>236</ele>
        <time>2020-12-13T19:57:10Z</time>
      </trkpt>
      <trkpt lat="44.59802" lon="0.91862">
        <ele>225</ele>
        <time>2020-12-13T19:57:37Z</time>
      </trkpt>
      <trkpt lat="44.59912" lon="0.91798">
        <ele>219</ele>
        <time>2020-12-13T19:58:05Z</time>
      </trkpt>
      <trkpt lat="44.59988" lon="0.91768">
        <ele>217</ele>
        <time>2020-12-13T19:58:23Z</time>
      </trkpt>
      <trkpt lat="44.60077" lon="0.91725">
        <ele>213</ele>
        <time>2020-12-13T19:58:45Z</time>
      </trkpt>
      <trkpt lat="44.60095" lon="0.91807">
        <ele>212</ele>
        <time>2020-12-13T19:58:59Z</time>
      </trkpt>
      <trkpt lat="44.60171" lon="0.91867">
        <ele>215</ele>
        <time>2020-12-13T19:59:20Z</time>
      </trkpt>
      <trkpt lat="44.60242" lon="0.91995">
        <ele>222</ele>
        <time>2020-12-13T19:59:47Z</time>
      </trkpt>
      <trkpt lat="44.60349" lon="0.91983">
        <ele>226</ele>
        <time>2020-12-13T20:00:12Z</time>
      </trkpt>
      <trkpt lat="44.60349" lon="0.91691">
        <ele>210</ele>
        <time>2020-12-13T20:01:00Z</time>
      </trkpt>
      <trkpt lat="44.60413" lon="0.91639">
        <ele>213</ele>
        <time>2020-12-13T20:01:18Z</time>
      </trkpt>
      <trkpt lat="44.60526" lon="0.91618">
        <ele>204</ele>
        <time>2020-12-13T20:01:44Z</time>
      </trkpt>
      <trkpt lat="44.60602" lon="0.91609">
        <ele>204</ele>
        <time>2020-12-13T20:02:02Z</time>
      </trkpt>
      <trkpt lat="44.60663" lon="0.91665">
        <ele>205</ele>
        <time>2020-12-13T20:02:19Z</time>
      </trkpt>
      <trkpt lat="44.60773" lon="0.91622">
        <ele>198</ele>
        <time>2020-12-13T20:02:46Z</time>
      </trkpt>
      <trkpt lat="44.60831" lon="0.91558">
        <ele>197</ele>
        <time>2020-12-13T20:03:03Z</time>
      </trkpt>
      <trkpt lat="44.60886" lon="0.91605">
        <ele>195</ele>
        <time>2020-12-13T20:03:18Z</time>
      </trkpt>
      <trkpt lat="44.60984" lon="0.91511">
        <ele>187</ele>
        <time>2020-12-13T20:03:46Z</time>
      </trkpt>
      <trkpt lat="44.60984" lon="0.91317">
        <ele>175</ele>
        <time>2020-12-13T20:04:18Z</time>
      </trkpt>
      <trkpt lat="44.61073" lon="0.9121">
        <ele>179</ele>
        <time>2020-12-13T20:04:45Z</time>
      </trkpt>
      <trkpt lat="44.61115" lon="0.91133">
        <ele>185</ele>
        <time>2020-12-13T20:05:01Z</time>
      </trkpt>
      <trkpt lat="44.61268" lon="0.91116">
        <ele>197</ele>
        <time>2020-12-13T20:05:37Z</time>
      </trkpt>
      <trkpt lat="44.61412" lon="0.91116">
        <ele>200</ele>
        <time>2020-12-13T20:06:11Z</time>
      </trkpt>
      <trkpt lat="44.61424" lon="0.90974">
        <ele>205</ele>
        <time>2020-12-13T20:06:35Z</time>
      </trkpt>
      <trkpt lat="44.61433" lon="0.90755">
        <ele>217</ele>
        <time>2020-12-13T20:07:11Z</time>
      </trkpt>
      <trkpt lat="44.61378" lon="0.90541">
        <ele>229</ele>
        <time>2020-12-13T20:07:49Z</time>
      </trkpt>
      <trkpt lat="44.61393" lon="0.90403">
        <ele>226</ele>
        <time>2020-12-13T20:08:12Z</time>
      </trkpt>
      <trkpt lat="44.61537" lon="0.9033">
        <ele>227</ele>
        <time>2020-12-13T20:08:48Z</time>
      </trkpt>
      <trkpt lat="44.61528" lon="0.90257">
        <ele>225</ele>
        <time>2020-12-13T20:09:00Z</time>
      </trkpt>
      <trkpt lat="44.61412" lon="0.90081">
        <ele>219</ele>
        <time>2020-12-13T20:09:40Z</time>
      </trkpt>
      <trkpt lat="44.61332" lon="0.90077">
        <ele>214</ele>
        <time>2020-12-13T20:09:59Z</time>
      </trkpt>
      <trkpt lat="44.61088" lon="0.90094">
        <ele>201</ele>
        <time>2020-12-13T20:10:56Z</time>
      </trkpt>
      <trkpt lat="44.61076" lon="0.90008">
        <ele>200</ele>
        <time>2020-12-13T20:11:10Z</time>
      </trkpt>
      <trkpt lat="44.61073" lon="0.89906">
        <ele>203</ele>
        <time>2020-12-13T20:11:27Z</time>
      </trkpt>
      <trkpt lat="44.61057" lon="0.8976">
        <ele>205</ele>
        <time>2020-12-13T20:11:52Z</time>
      </trkpt>
      <trkpt lat="44.61091" lon="0.89725">
        <ele>208</ele>
        <time>2020-12-13T20:12:02Z</time>
      </trkpt>
      <trkpt lat="44.61125" lon="0.89627">
        <ele>213</ele>
        <time>2020-12-13T20:12:20Z</time>
      </trkpt>
      <trkpt lat="44.61271" lon="0.89451">
        <ele>215</ele>
        <time>2020-12-13T20:13:05Z</time>
      </trkpt>
      <trkpt lat="44.61482" lon="0.89215">
        <ele>200</ele>
        <time>2020-12-13T20:14:08Z</time>
      </trkpt>
      <trkpt lat="44.61564" lon="0.89177">
        <ele>201</ele>
        <time>2020-12-13T20:14:28Z</time>
      </trkpt>
      <trkpt lat="44.61618" lon="0.89462">
        <ele>206</ele>
        <time>2020-12-13T20:15:17Z</time>
      </trkpt>
      <trkpt lat="44.61584" lon="0.89585">
        <ele>208</ele>
        <time>2020-12-13T20:15:39Z</time>
      </trkpt>
      <trkpt lat="44.61605" lon="0.89723">
        <ele>210</ele>
        <time>2020-12-13T20:16:02Z</time>
      </trkpt>
      <trkpt lat="44.61678" lon="0.89884">
        <ele>210</ele>
        <time>2020-12-13T20:16:34Z</time>
      </trkpt>
      <trkpt lat="44.61745" lon="0.90044">
        <ele>214</ele>
        <time>2020-12-13T20:17:05Z</time>
      </trkpt>
      <trkpt lat="44.61832" lon="0.90241">
        <ele>218</ele>
        <time>2020-12-13T20:17:43Z</time>
      </trkpt>
      <trkpt lat="44.619" lon="0.90315">
        <ele>226</ele>
        <time>2020-12-13T20:18:04Z</time>
      </trkpt>
      <trkpt lat="44.61987" lon="0.90368">
        <ele>230</ele>
        <time>2020-12-13T20:18:26Z</time>
      </trkpt>
      <trkpt lat="44.62083" lon="0.90478">
        <ele>230</ele>
        <time>2020-12-13T20:18:55Z</time>
      </trkpt>
      <trkpt lat="44.62145" lon="0.90578">
        <ele>235</ele>
        <time>2020-12-13T20:19:17Z</time>
      </trkpt>
      <trkpt lat="44.62179" lon="0.90692">
        <ele>240</ele>
        <time>2020-12-13T20:19:37Z</time>
      </trkpt>
      <trkpt lat="44.62201" lon="0.90777">
        <ele>241</ele>
        <time>2020-12-13T20:19:52Z</time>
      </trkpt>
      <trkpt lat="44.6223" lon="0.90953">
        <ele>241</ele>
        <time>2020-12-13T20:20:22Z</time>
      </trkpt>
      <trkpt lat="44.62274" lon="0.91062">
        <ele>242</ele>
        <time>2020-12-13T20:20:43Z</time>
      </trkpt>
      <trkpt lat="44.62337" lon="0.91159">
        <ele>240</ele>
        <time>2020-12-13T20:21:05Z</time>
      </trkpt>
      <trkpt lat="44.62425" lon="0.91325">
        <ele>241</ele>
        <time>2020-12-13T20:21:39Z</time>
      </trkpt>
      <trkpt lat="44.62483" lon="0.91494">
        <ele>243</ele>
        <time>2020-12-13T20:22:11Z</time>
      </trkpt>
      <trkpt lat="44.62426" lon="0.91596">
        <ele>235</ele>
        <time>2020-12-13T20:22:32Z</time>
      </trkpt>
      <trkpt lat="44.62435" lon="0.91754">
        <ele>243</ele>
        <time>2020-12-13T20:22:58Z</time>
      </trkpt>
      <trkpt lat="44.62406" lon="0.91831">
        <ele>240</ele>
        <time>2020-12-13T20:23:13Z</time>
      </trkpt>
      <trkpt lat="44.62386" lon="0.92042">
        <ele>243</ele>
        <time>2020-12-13T20:23:48Z</time>
      </trkpt>
      <trkpt lat="44.62379" lon="0.92188">
        <ele>251</ele>
        <time>2020-12-13T20:24:13Z</time>
      </trkpt>
      <trkpt lat="44.62307" lon="0.92326">
        <ele>248</ele>
        <time>2020-12-13T20:24:41Z</time>
      </trkpt>
      <trkpt lat="44.62317" lon="0.92369">
        <ele>250</ele>
        <time>2020-12-13T20:24:49Z</time>
      </trkpt>
      <trkpt lat="44.62287" lon="0.92453">
        <ele>251</ele>
        <time>2020-12-13T20:25:04Z</time>
      </trkpt>
      <trkpt lat="44.62267" lon="0.92565">
        <ele>251</ele>
        <time>2020-12-13T20:25:23Z</time>
      </trkpt>
      <trkpt lat="44.62276" lon="0.92591">
        <ele>251</ele>
        <time>2020-12-13T20:25:28Z</time>
      </trkpt>
      <trkpt lat="44.62328" lon="0.92713">
        <ele>243</ele>
        <time>2020-12-13T20:25:52Z</time>
      </trkpt>
      <trkpt lat="44.62361" lon="0.92872">
        <ele>232</ele>
        <time>2020-12-13T20:26:19Z</time>
      </trkpt>
      <trkpt lat="44.62425" lon="0.92997">
        <ele>227</ele>
        <time>2020-12-13T20:26:45Z</time>
      </trkpt>
      <trkpt lat="44.62492" lon="0.93101">
        <ele>229</ele>
        <time>2020-12-13T20:27:08Z</time>
      </trkpt>
      <trkpt lat="44.62523" lon="0.93178">
        <ele>227</ele>
        <time>2020-12-13T20:27:23Z</time>
      </trkpt>
      <trkpt lat="44.62548" lon="0.93221">
        <ele>227</ele>
        <time>2020-12-13T20:27:32Z</time>
      </trkpt>
      <trkpt lat="44.6259" lon="0.93272">
        <ele>228</ele>
        <time>2020-12-13T20:27:45Z</time>
      </trkpt>
      <trkpt lat="44.62626" lon="0.93415">
        <ele>231</ele>
        <time>2020-12-13T20:28:10Z</time>
      </trkpt>
      <trkpt lat="44.62682" lon="0.9342">
        <ele>232</ele>
        <time>2020-12-13T20:28:23Z</time>
      </trkpt>
      <trkpt lat="44.62715" lon="0.93395">
        <ele>236</ele>
        <time>2020-12-13T20:28:32Z</time>
      </trkpt>
      <trkpt lat="44.6281" lon="0.93331">
        <ele>247</ele>
        <time>2020-12-13T20:28:57Z</time>
      </trkpt>
      <trkpt lat="44.62951" lon="0.93293">
        <ele>252</ele>
        <time>2020-12-13T20:29:30Z</time>
      </trkpt>
      <trkpt lat="44.63077" lon="0.93295">
        <ele>255</ele>
        <time>2020-12-13T20:30:00Z</time>
      </trkpt>
      <trkpt lat="44.63162" lon="0.93242">
        <ele>258</ele>
        <time>2020-12-13T20:30:22Z</time>
      </trkpt>
      <trkpt lat="44.63236" lon="0.93272">
        <ele>262</ele>
        <time>2020-12-13T20:30:40Z</time>
      </trkpt>
      <trkpt lat="44.63307" lon="0.93288">
        <ele>265</ele>
        <time>2020-12-13T20:30:56Z</time>
      </trkpt>
      <trkpt lat="44.6342" lon="0.9329">
        <ele>270</ele>
        <time>2020-12-13T20:31:23Z</time>
      </trkpt>
      <trkpt lat="44.63514" lon="0.93331">
        <ele>275</ele>
        <time>2020-12-13T20:31:46Z</time>
      </trkpt>
      <trkpt lat="44.63589" lon="0.93339">
        <ele>282</ele>
        <time>2020-12-13T20:32:03Z</time>
      </trkpt>
      <trkpt lat="44.63701" lon="0.93297">
        <ele>283</ele>
        <time>2020-12-13T20:32:30Z</time>
      </trkpt>
      <trkpt lat="44.6379" lon="0.93429">
        <ele>279</ele>
        <time>2020-12-13T20:33:01Z</time>
      </trkpt>
      <trkpt lat="44.63883" lon="0.93661">
        <ele>275</ele>
        <time>2020-12-13T20:33:45Z</time>
      </trkpt>
      <trkpt lat="44.64003" lon="0.93979">
        <ele>272</ele>
        <time>2020-12-13T20:34:45Z</time>
      </trkpt>
      <trkpt lat="44.6404" lon="0.9441">
        <ele>270</ele>
        <time>2020-12-13T20:35:57Z</time>
      </trkpt>
      <trkpt lat="44.63916" lon="0.9451">
        <ele>268</ele>
        <time>2020-12-13T20:36:30Z</time>
      </trkpt>
      <trkpt lat="44.63782" lon="0.9463">
        <ele>257</ele>
        <time>2020-12-13T20:37:07Z</time>
      </trkpt>
      <trkpt lat="44.63737" lon="0.9469">
        <ele>255</ele>
        <time>2020-12-13T20:37:22Z</time>
      </trkpt>
      <trkpt lat="44.63691" lon="0.94775">
        <ele>257</ele>
        <time>2020-12-13T20:37:39Z</time>
      </trkpt>
      <trkpt lat="44.6366" lon="0.94759">
        <ele>254</ele>
        <time>2020-12-13T20:37:47Z</time>
      </trkpt>
      <trkpt lat="44.63596" lon="0.94739">
        <ele>254</ele>
        <time>2020-12-13T20:38:02Z</time>
      </trkpt>
      <trkpt lat="44.63476" lon="0.94759">
        <ele>248</ele>
        <time>2020-12-13T20:38:31Z</time>
      </trkpt>
      <trkpt lat="44.63403" lon="0.94805">
        <ele>246</ele>
        <time>2020-12-13T20:38:49Z</time>
      </trkpt>
      <trkpt lat="44.6336" lon="0.94953">
        <ele>253</ele>
        <time>2020-12-13T20:39:16Z</time>
      </trkpt>
      <trkpt lat="44.6332" lon="0.95011">
        <ele>254</ele>
        <time>2020-12-13T20:39:29Z</time>
      </trkpt>
      <trkpt lat="44.6329" lon="0.95083">
        <ele>257</ele>
        <time>2020-12-13T20:39:43Z</time>
      </trkpt>
      <trkpt lat="44.63218" lon="0.95118">
        <ele>255</ele>
        <time>2020-12-13T20:40:01Z</time>
      </trkpt>
      <trkpt lat="44.63087" lon="0.95145">
        <ele>252</ele>
        <time>2020-12-13T20:40:32Z</time>
      </trkpt>
      <trkpt lat="44.63013" lon="0.95181">
        <ele>245</ele>
        <time>2020-12-13T20:40:50Z</time>
      </trkpt>
      <trkpt lat="44.62847" lon="0.95287">
        <ele>247</ele>
        <time>2020-12-13T20:41:33Z</time>
      </trkpt>
      <trkpt lat="44.627" lon="0.95361">
        <ele>244</ele>
        <time>2020-12-13T20:42:09Z</time>
      </trkpt>
      <trkpt lat="44.62516" lon="0.95433">
        <ele>240</ele>
        <time>2020-12-13T20:42:54Z</time>
      </trkpt>
      <trkpt lat="44.62408" lon="0.9537">
        <ele>240</ele>
        <time>2020-12-13T20:43:21Z</time>
      </trkpt>
      <trkpt lat="44.62232" lon="0.95349">
        <ele>241</ele>
        <time>2020-12-13T20:44:02Z</time>
      </trkpt>
      <trkpt lat="44.62038" lon="0.95302">
        <ele>248</ele>
        <time>2020-12-13T20:44:48Z</time>
      </trkpt>
      <trkpt lat="44.61884" lon="0.95237">
        <ele>251</ele>
        <time>2020-12-13T20:45:26Z</time>
      </trkpt>
      <trkpt lat="44.61695" lon="0.9519">
        <ele>250</ele>
        <time>2020-12-13T20:46:11Z</time>
      </trkpt>
      <trkpt lat="44.61604" lon="0.95179">
        <ele>251</ele>
        <time>2020-12-13T20:46:32Z</time>
      </trkpt>
      <trkpt lat="44.61487" lon="0.95231">
        <ele>247</ele>
        <time>2020-12-13T20:47:01Z</time>
      </trkpt>
      <trkpt lat="44.61135" lon="0.95487">
        <ele>236</ele>
        <time>2020-12-13T20:48:33Z</time>
      </trkpt>
      <trkpt lat="44.61036" lon="0.95718">
        <ele>240</ele>
        <time>2020-12-13T20:49:18Z</time>
      </trkpt>
      <trkpt lat="44.60985" lon="0.95931">
        <ele>234</ele>
        <time>2020-12-13T20:49:56Z</time>
      </trkpt>
      <trkpt lat="44.6093" lon="0.96004">
        <ele>231</ele>
        <time>2020-12-13T20:50:13Z</time>
      </trkpt>
      <trkpt lat="44.60773" lon="0.96115">
        <ele>222</ele>
        <time>2020-12-13T20:50:54Z</time>
      </trkpt>
      <trkpt lat="44.60684" lon="0.96222">
        <ele>218</ele>
        <time>2020-12-13T20:51:22Z</time>
      </trkpt>
      <trkpt lat="44.60624" lon="0.96375">
        <ele>211</ele>
        <time>2020-12-13T20:51:51Z</time>
      </trkpt>
      <trkpt lat="44.60639" lon="0.9644">
        <ele>207</ele>
        <time>2020-12-13T20:52:02Z</time>
      </trkpt>
      <trkpt lat="44.60621" lon="0.96689">
        <ele>203</ele>
        <time>2020-12-13T20:52:44Z</time>
      </trkpt>
      <trkpt lat="44.60633" lon="0.96855">
        <ele>190</ele>
        <time>2020-12-13T20:53:11Z</time>
      </trkpt>
      <trkpt lat="44.60507" lon="0.96974">
        <ele>181</ele>
        <time>2020-12-13T20:53:47Z</time>
      </trkpt>
      <trkpt lat="44.6043" lon="0.97003">
        <ele>183</ele>
        <time>2020-12-13T20:54:05Z</time>
      </trkpt>
      <trkpt lat="44.6037" lon="0.97068">
        <ele>172</ele>
        <time>2020-12-13T20:54:23Z</time>
      </trkpt>
      <trkpt lat="44.60341" lon="0.97164">
        <ele>153</ele>
        <time>2020-12-13T20:54:40Z</time>
      </trkpt>
      <trkpt lat="44.60291" lon="0.97164">
        <ele>152</ele>
        <time>2020-12-13T20:54:52Z</time>
      </trkpt>
      <trkpt lat="44.60204" lon="0.97126">
        <ele>156</ele>
        <time>2020-12-13T20:55:13Z</time>
      </trkpt>
      <trkpt lat="44.60162" lon="0.97083">
        <ele>154</ele>
        <time>2020-12-13T20:55:26Z</time>
      </trkpt>
      <trkpt lat="44.60054" lon="0.97041">
        <ele>140</ele>
        <time>2020-12-13T20:55:52Z</time>
      </trkpt>
      <trkpt lat="44.60001" lon="0.97016">
        <ele>136</ele>
        <time>2020-12-13T20:56:05Z</time>
      </trkpt>
      <trkpt lat="44.5992" lon="0.97084">
        <ele>148</ele>
        <time>2020-12-13T20:56:27Z</time>
      </trkpt>
      <trkpt lat="44.59881" lon="0.97135">
        <ele>156</ele>
        <time>2020-12-13T20:56:39Z</time>
      </trkpt>
      <trkpt lat="44.59816" lon="0.97203">
        <ele>166</ele>
        <time>2020-12-13T20:56:58Z</time>
      </trkpt>
      <trkpt lat="44.59766" lon="0.9723">
        <ele>169</ele>
        <time>2020-12-13T20:57:11Z</time>
      </trkpt>
      <trkpt lat="44.59714" lon="0.97182">
        <ele>174</ele>
        <time>2020-12-13T20:57:25Z</time>
      </trkpt>
      <trkpt lat="44.59698" lon="0.97126">
        <ele>173</ele>
        <time>2020-12-13T20:57:35Z</time>
      </trkpt>
      <trkpt lat="44.5973" lon="0.97048">
        <ele>177</ele>
        <time>2020-12-13T20:57:50Z</time>
      </trkpt>
      <trkpt lat="44.59731" lon="0.97009">
        <ele>178</ele>
        <time>2020-12-13T20:57:57Z</time>
      </trkpt>
      <trkpt lat="44.59717" lon="0.96945">
        <ele>173</ele>
        <time>2020-12-13T20:58:08Z</time>
      </trkpt>
      <trkpt lat="44.59713" lon="0.96886">
        <ele>168</ele>
        <time>2020-12-13T20:58:18Z</time>
      </trkpt>
      <trkpt lat="44.59704" lon="0.96843">
        <ele>163</ele>
        <time>2020-12-13T20:58:25Z</time>
      </trkpt>
      <trkpt lat="44.59693" lon="0.96823">
        <ele>161</ele>
        <time>2020-12-13T20:58:29Z</time>
      </trkpt>
      <trkpt lat="44.59654" lon="0.96734">
        <ele>159</ele>
        <time>2020-12-13T20:58:47Z</time>
      </trkpt>
      <trkpt lat="44.59618" lon="0.96716">
        <ele>156</ele>
        <time>2020-12-13T20:58:56Z</time>
      </trkpt>
      <trkpt lat="44.59637" lon="0.96622">
        <ele>142</ele>
        <time>2020-12-13T20:59:12Z</time>
      </trkpt>
      <trkpt lat="44.596" lon="0.96597">
        <ele>136</ele>
        <time>2020-12-13T20:59:22Z</time>
      </trkpt>
      <trkpt lat="44.59655" lon="0.96595">
        <ele>138</ele>
        <time>2020-12-13T20:59:34Z</time>
      </trkpt>
      <trkpt lat="44.59694" lon="0.96604">
        <ele>141</ele>
        <time>2020-12-13T20:59:44Z</time>
      </trkpt>
      <trkpt lat="44.59689" lon="0.96566">
        <ele>139</ele>
        <time>2020-12-13T20:59:50Z</time>
      </trkpt>
      <trkpt lat="44.59651" lon="0.96489">
        <ele>141</ele>
        <time>2020-12-13T21:00:06Z</time>
      </trkpt>
      <trkpt lat="44.59554" lon="0.9642">
        <ele>143</ele>
        <time>2020-12-13T21:00:31Z</time>
      </trkpt>
      <trkpt lat="44.5946" lon="0.96399">
        <ele>140</ele>
        <time>2020-12-13T21:00:53Z</time>
      </trkpt>
      <trkpt lat="44.59416" lon="0.96366">
        <ele>139</ele>
        <time>2020-12-13T21:01:05Z</time>
      </trkpt>
      <trkpt lat="44.59445" lon="0.96307">
        <ele>138</ele>
        <time>2020-12-13T21:01:17Z</time>
      </trkpt>
      <trkpt lat="44.5946" lon="0.96265">
        <ele>133</ele>
        <time>2020-12-13T21:01:25Z</time>
      </trkpt>
      <trkpt lat="44.59482" lon="0.96189">
        <ele>133</ele>
        <time>2020-12-13T21:01:38Z</time>
      </trkpt>
      <trkpt lat="44.59473" lon="0.96153">
        <ele>136</ele>
        <time>2020-12-13T21:01:45Z</time>
      </trkpt>
      <trkpt lat="44.59442" lon="0.96115">
        <ele>140</ele>
        <time>2020-12-13T21:01:54Z</time>
      </trkpt>
      <trkpt lat="44.59465" lon="0.9611">
        <ele>144</ele>
        <time>2020-12-13T21:02:00Z</time>
      </trkpt>
      <trkpt lat="44.59522" lon="0.96112">
        <ele>148</ele>
        <time>2020-12-13T21:02:13Z</time>
      </trkpt>
      <trkpt lat="44.59571" lon="0.96087">
        <ele>154</ele>
        <time>2020-12-13T21:02:25Z</time>
      </trkpt>
      <trkpt lat="44.59595" lon="0.96028">
        <ele>168</ele>
        <time>2020-12-13T21:02:36Z</time>
      </trkpt>
      <trkpt lat="44.59582" lon="0.95872">
        <ele>189</ele>
        <time>2020-12-13T21:03:03Z</time>
      </trkpt>
      <trkpt lat="44.59605" lon="0.95744">
        <ele>197</ele>
        <time>2020-12-13T21:03:25Z</time>
      </trkpt>
      <trkpt lat="44.5961" lon="0.95652">
        <ele>198</ele>
        <time>2020-12-13T21:03:40Z</time>
      </trkpt>
      <trkpt lat="44.59564" lon="0.95525">
        <ele>202</ele>
        <time>2020-12-13T21:04:04Z</time>
      </trkpt>
      <trkpt lat="44.59574" lon="0.95428">
        <ele>211</ele>
        <time>2020-12-13T21:04:20Z</time>
      </trkpt>
      <trkpt lat="44.59595" lon="0.95349">
        <ele>215</ele>
        <time>2020-12-13T21:04:34Z</time>
      </trkpt>
      <trkpt lat="44.5958" lon="0.953">
        <ele>218</ele>
        <time>2020-12-13T21:04:43Z</time>
      </trkpt>
      <trkpt lat="44.5959" lon="0.95208">
        <ele>222</ele>
        <time>2020-12-13T21:04:58Z</time>
      </trkpt>
      <trkpt lat="44.59622" lon="0.9515">
        <ele>225</ele>
        <time>2020-12-13T21:05:10Z</time>
      </trkpt>
      <trkpt lat="44.59682" lon="0.95094">
        <ele>229</ele>
        <time>2020-12-13T21:05:27Z</time>
      </trkpt>
      <trkpt lat="44.59721" lon="0.94939">
        <ele>236</ele>
        <time>2020-12-13T21:05:55Z</time>
      </trkpt>
      <trkpt lat="44.59786" lon="0.94843">
        <ele>237</ele>
        <time>2020-12-13T21:06:17Z</time>
      </trkpt>
      <trkpt lat="44.59845" lon="0.94715">
        <ele>235</ele>
        <time>2020-12-13T21:06:42Z</time>
      </trkpt>
      <trkpt lat="44.59903" lon="0.94544">
        <ele>232</ele>
        <time>2020-12-13T21:07:13Z</time>
      </trkpt>
      <trkpt lat="44.59875" lon="0.94452">
        <ele>237</ele>
        <time>2020-12-13T21:07:30Z</time>
      </trkpt>
      <trkpt lat="44.59826" lon="0.94315">
        <ele>240</ele>
        <time>2020-12-13T21:07:56Z</time>
      </trkpt>
      <trkpt lat="44.5979" lon="0.94143">
        <ele>237</ele>
        <time>2020-12-13T21:08:25Z</time>
      </trkpt>
      <trkpt lat="44.59779" lon="0.93954">
        <ele>232</ele>
        <time>2020-12-13T21:08:57Z</time>
      </trkpt>
      <trkpt lat="44.59736" lon="0.93835">
        <ele>230</ele>
        <time>2020-12-13T21:09:19Z</time>
      </trkpt>
      <trkpt lat="44.59682" lon="0.93752">
        <ele>235</ele>
        <time>2020-12-13T21:09:38Z</time>
      </trkpt>
      <trkpt lat="44.59639" lon="0.93723">
        <ele>235</ele>
        <time>2020-12-13T21:09:49Z</time>
      </trkpt>
      <trkpt lat="44.59608" lon="0.93591">
        <ele>236</ele>
        <time>2020-12-13T21:10:12Z</time>
      </trkpt>
      <trkpt lat="44.59546" lon="0.93403">
        <ele>242</ele>
        <time>2020-12-13T21:10:47Z</time>
      </trkpt>
      <trkpt lat="44.59497" lon="0.93329">
        <ele>241</ele>
        <time>2020-12-13T21:11:03Z</time>
      </trkpt>
      <trkpt lat="44.59443" lon="0.93176">
        <ele>239</ele>
        <time>2020-12-13T21:11:32Z</time>
      </trkpt>
      <trkpt lat="44.59414" lon="0.9301">
        <ele>241</ele>
        <time>2020-12-13T21:12:00Z</time>
      </trkpt>
      <trkpt lat="44.59373" lon="0.92947">
        <ele>240</ele>
        <time>2020-12-13T21:12:14Z</time>
      </trkpt>
      <trkpt lat="44.59337" lon="0.92882">
        <ele>241</ele>
        <time>2020-12-13T21:12:28Z</time>
      </trkpt>
      <trkpt lat="44.59296" lon="0.92853">
        <ele>241</ele>
        <time>2020-12-13T21:12:39Z</time>
      </trkpt>
      <trkpt lat="44.59238" lon="0.92833">
        <ele>241</ele>
        <time>2020-12-13T21:12:53Z</time>
      </trkpt>
      <trkpt lat="44.59222" lon="0.92781">
        <ele>242</ele>
        <time>2020-12-13T21:13:02Z</time>
      </trkpt>
      <trkpt lat="44.59194" lon="0.92738">
        <ele>241</ele>
        <time>2020-12-13T21:13:12Z</time>
      </trkpt>
      <trkpt lat="44.59153" lon="0.92765">
        <ele>241</ele>
        <time>2020-12-13T21:13:22Z</time>
      </trkpt>
      <trkpt lat="44.59111" lon="0.92783">
        <ele>242</ele>
        <time>2020-12-13T21:13:33Z</time>
      </trkpt>
      <trkpt lat="44.58988" lon="0.92725">
        <ele>242</ele>
        <time>2020-12-13T21:14:03Z</time>
      </trkpt>
      <trkpt lat="44.59024" lon="0.92642">
        <ele>242</ele>
        <time>2020-12-13T21:14:19Z</time>
      </trkpt>
      <trkpt lat="44.59037" lon="0.92593">
        <ele>243</ele>
        <time>2020-12-13T21:14:28Z</time>
      </trkpt>
      <trkpt lat="44.59008" lon="0.92508">
        <ele>243</ele>
        <time>2020-12-13T21:14:43Z</time>
      </trkpt>
      <trkpt lat="44.5894" lon="0.92389">
        <ele>243</ele>
        <time>2020-12-13T21:15:09Z</time>
      </trkpt>
      <trkpt lat="44.5878" lon="0.92449">
        <ele>246</ele>
        <time>2020-12-13T21:15:48Z</time>
      </trkpt>
      <trkpt lat="44.58657" lon="0.92462">
        <ele>243</ele>
        <time>2020-12-13T21:16:16Z</time>
      </trkpt>
      <trkpt lat="44.58666" lon="0.92534">
        <ele>241</ele>
        <time>2020-12-13T21:16:28Z</time>
      </trkpt>
      <trkpt lat="44.58498" lon="0.92487">
        <ele>245</ele>
        <time>2020-12-13T21:17:08Z</time>
      </trkpt>
      <trkpt lat="44.58316" lon="0.92467">
        <ele>237</ele>
        <time>2020-12-13T21:17:51Z</time>
      </trkpt>
      <trkpt lat="44.58232" lon="0.92505">
        <ele>241</ele>
        <time>2020-12-13T21:18:12Z</time>
      </trkpt>
      <trkpt lat="44.58243" lon="0.92604">
        <ele>243</ele>
        <time>2020-12-13T21:18:28Z</time>
      </trkpt>
      <trkpt lat="44.58278" lon="0.92783">
        <ele>234</ele>
        <time>2020-12-13T21:18:59Z</time>
      </trkpt>
      <trkpt lat="44.58277" lon="0.92848">
        <ele>229</ele>
        <time>2020-12-13T21:19:10Z</time>
      </trkpt>
      <trkpt lat="44.58264" lon="0.9294">
        <ele>226</ele>
        <time>2020-12-13T21:19:26Z</time>
      </trkpt>
      <trkpt lat="44.58246" lon="0.92997">
        <ele>227</ele>
        <time>2020-12-13T21:19:36Z</time>
      </trkpt>
      <trkpt lat="44.58158" lon="0.93048">
        <ele>215</ele>
        <time>2020-12-13T21:19:58Z</time>
      </trkpt>
      <trkpt lat="44.58112" lon="0.93079">
        <ele>215</ele>
        <time>2020-12-13T21:20:10Z</time>
      </trkpt>
      <trkpt lat="44.58059" lon="0.93059">
        <ele>220</ele>
        <time>2020-12-13T21:20:23Z</time>
      </trkpt>
      <trkpt lat="44.57949" lon="0.93028">
        <ele>235</ele>
        <time>2020-12-13T21:20:49Z</time>
      </trkpt>
      <trkpt lat="44.57895" lon="0.92963">
        <ele>239</ele>
        <time>2020-12-13T21:21:06Z</time>
      </trkpt>
      <trkpt lat="44.57868" lon="0.92862">
        <ele>242</ele>
        <time>2020-12-13T21:21:24Z</time>
      </trkpt>
      <trkpt lat="44.5781" lon="0.92777">
        <ele>248</ele>
        <time>2020-12-13T21:21:43Z</time>
      </trkpt>
      <trkpt lat="44.57773" lon="0.92747">
        <ele>249</ele>
        <time>2020-12-13T21:21:53Z</time>
      </trkpt>
      <trkpt lat="44.5762" lon="0.92806">
        <ele>239</ele>
        <time>2020-12-13T21:22:30Z</time>
      </trkpt>
      <trkpt lat="44.57553" lon="0.92835">
        <ele>237</ele>
        <time>2020-12-13T21:22:47Z</time>
      </trkpt>
      <trkpt lat="44.57517" lon="0.92891">
        <ele>239</ele>
        <time>2020-12-13T21:22:59Z</time>
      </trkpt>
      <trkpt lat="44.57504" lon="0.92943">
        <ele>240</ele>
        <time>2020-12-13T21:23:08Z</time>
      </trkpt>
      <trkpt lat="44.57471" lon="0.92938">
        <ele>240</ele>
        <time>2020-12-13T21:23:16Z</time>
      </trkpt>
      <trkpt lat="44.57441" lon="0.92819">
        <ele>244</ele>
        <time>2020-12-13T21:23:37Z</time>
      </trkpt>
      <trkpt lat="44.57351" lon="0.92842">
        <ele>246</ele>
        <time>2020-12-13T21:23:59Z</time>
      </trkpt>
      <trkpt lat="44.57273" lon="0.92896">
        <ele>247</ele>
        <time>2020-12-13T21:24:19Z</time>
      </trkpt>
      <trkpt lat="44.57223" lon="0.92891">
        <ele>248</ele>
        <time>2020-12-13T21:24:31Z</time>
      </trkpt>
      <trkpt lat="44.5717" lon="0.92907">
        <ele>249</ele>
        <time>2020-12-13T21:24:43Z</time>
      </trkpt>
      <trkpt lat="44.5713" lon="0.92951">
        <ele>248</ele>
        <time>2020-12-13T21:24:55Z</time>
      </trkpt>
      <trkpt lat="44.57072" lon="0.92963">
        <ele>248</ele>
        <time>2020-12-13T21:25:09Z</time>
      </trkpt>
      <trkpt lat="44.56909" lon="0.92922">
        <ele>246</ele>
        <time>2020-12-13T21:25:47Z</time>
      </trkpt>
      <trkpt lat="44.56864" lon="0.92951">
        <ele>245</ele>
        <time>2020-12-13T21:25:59Z</time>
      </trkpt>
      <trkpt lat="44.56765" lon="0.92983">
        <ele>246</ele>
        <time>2020-12-13T21:26:23Z</time>
      </trkpt>
      <trkpt lat="44.56764" lon="0.93062">
        <ele>245</ele>
        <time>2020-12-13T21:26:36Z</time>
      </trkpt>
      <trkpt lat="44.56757" lon="0.9314">
        <ele>246</ele>
        <time>2020-12-13T21:26:49Z</time>
      </trkpt>
      <trkpt lat="44.56782" lon="0.9321">
        <ele>244</ele>
        <time>2020-12-13T21:27:02Z</time>
      </trkpt>
      <trkpt lat="44.56811" lon="0.93261">
        <ele>242</ele>
        <time>2020-12-13T21:27:13Z</time>
      </trkpt>
      <trkpt lat="44.56809" lon="0.93295">
        <ele>241</ele>
        <time>2020-12-13T21:27:19Z</time>
      </trkpt>
      <trkpt lat="44.56723" lon="0.93246">
        <ele>244</ele>
        <time>2020-12-13T21:27:40Z</time>
      </trkpt>
      <trkpt lat="44.56689" lon="0.93275">
        <ele>239</ele>
        <time>2020-12-13T21:27:50Z</time>
      </trkpt>
      <trkpt lat="44.56634" lon="0.9327">
        <ele>232</ele>
        <time>2020-12-13T21:28:02Z</time>
      </trkpt>
      <trkpt lat="44.56588" lon="0.93236">
        <ele>223</ele>
        <time>2020-12-13T21:28:15Z</time>
      </trkpt>
      <trkpt lat="44.5654" lon="0.93237">
        <ele>214</ele>
        <time>2020-12-13T21:28:26Z</time>
      </trkpt>
      <trkpt lat="44.56421" lon="0.93257">
        <ele>196</ele>
        <time>2020-12-13T21:28:54Z</time>
      </trkpt>
      <trkpt lat="44.56337" lon="0.93264">
        <ele>193</ele>
        <time>2020-12-13T21:29:13Z</time>
      </trkpt>
      <trkpt lat="44.56305" lon="0.93205">
        <ele>186</ele>
        <time>2020-12-13T21:29:26Z</time>
      </trkpt>
      <trkpt lat="44.5626" lon="0.9318">
        <ele>179</ele>
        <time>2020-12-13T21:29:37Z</time>
      </trkpt>
      <trkpt lat="44.56205" lon="0.93241">
        <ele>181</ele>
        <time>2020-12-13T21:29:53Z</time>
      </trkpt>
      <trkpt lat="44.56149" lon="0.93277">
        <ele>181</ele>
        <time>2020-12-13T21:30:08Z</time>
      </trkpt>
      <trkpt lat="44.56091" lon="0.93272">
        <ele>175</ele>
        <time>2020-12-13T21:30:21Z</time>
      </trkpt>
      <trkpt lat="44.56037" lon="0.93284">
        <ele>174</ele>
        <time>2020-12-13T21:30:34Z</time>
      </trkpt>
      <trkpt lat="44.55973" lon="0.93329">
        <ele>176</ele>
        <time>2020-12-13T21:30:51Z</time>
      </trkpt>
      <trkpt lat="44.55962" lon="0.9338">
        <ele>178</ele>
        <time>2020-12-13T21:31:00Z</time>
      </trkpt>
      <trkpt lat="44.55905" lon="0.93551">
        <ele>188</ele>
        <time>2020-12-13T21:31:31Z</time>
      </trkpt>
      <trkpt lat="44.55864" lon="0.93737">
        <ele>177</ele>
        <time>2020-12-13T21:32:04Z</time>
      </trkpt>
      <trkpt lat="44.55812" lon="0.93782">
        <ele>177</ele>
        <time>2020-12-13T21:32:18Z</time>
      </trkpt>
      <trkpt lat="44.55725" lon="0.93743">
        <ele>184</ele>
        <time>2020-12-13T21:32:39Z</time>
      </trkpt>
      <trkpt lat="44.55677" lon="0.93692">
        <ele>189</ele>
        <time>2020-12-13T21:32:53Z</time>
      </trkpt>
      <trkpt lat="44.55617" lon="0.93676">
        <ele>189</ele>
        <time>2020-12-13T21:33:07Z</time>
      </trkpt>
      <trkpt lat="44.55585" lon="0.93625">
        <ele>195</ele>
        <time>2020-12-13T21:33:19Z</time>
      </trkpt>
      <trkpt lat="44.55603" lon="0.93618">
        <ele>196</ele>
        <time>2020-12-13T21:33:23Z</time>
      </trkpt>
      <trkpt lat="44.55645" lon="0.93577">
        <ele>204</ele>
        <time>2020-12-13T21:33:35Z</time>
      </trkpt>
      <trkpt lat="44.55671" lon="0.9353">
        <ele>211</ele>
        <time>2020-12-13T21:33:45Z</time>
      </trkpt>
      <trkpt lat="44.55733" lon="0.93366">
        <ele>217</ele>
        <time>2020-12-13T21:34:16Z</time>
      </trkpt>
      <trkpt lat="44.55735" lon="0.93266">
        <ele>207</ele>
        <time>2020-12-13T21:34:33Z</time>
      </trkpt>
      <trkpt lat="44.55758" lon="0.93147">
        <ele>208</ele>
        <time>2020-12-13T21:34:53Z</time>
      </trkpt>
      <trkpt lat="44.55771" lon="0.93102">
        <ele>211</ele>
        <time>2020-12-13T21:35:01Z</time>
      </trkpt>
      <trkpt lat="44.55792" lon="0.93066">
        <ele>211</ele>
        <time>2020-12-13T21:35:09Z</time>
      </trkpt>
      <trkpt lat="44.55811" lon="0.92936">
        <ele>210</ele>
        <time>2020-12-13T21:35:31Z</time>
      </trkpt>
      <trkpt lat="44.55818" lon="0.92794">
        <ele>209</ele>
        <time>2020-12-13T21:35:55Z</time>
      </trkpt>
      <trkpt lat="44.55919" lon="0.92628">
        <ele>219</ele>
        <time>2020-12-13T21:36:31Z</time>
      </trkpt>
      <trkpt lat="44.55951" lon="0.92492">
        <ele>215</ele>
        <time>2020-12-13T21:36:55Z</time>
      </trkpt>
      <trkpt lat="44.56001" lon="0.92388">
        <ele>215</ele>
        <time>2020-12-13T21:37:16Z</time>
      </trkpt>
      <trkpt lat="44.56" lon="0.92335">
        <ele>214</ele>
        <time>2020-12-13T21:37:24Z</time>
      </trkpt>
      <trkpt lat="44.56023" lon="0.92238">
        <ele>213</ele>
        <time>2020-12-13T21:37:41Z</time>
      </trkpt>
      <trkpt lat="44.56053" lon="0.92133">
        <ele>212</ele>
        <time>2020-12-13T21:38:00Z</time>
      </trkpt>
      <trkpt lat="44.5607" lon="0.92047">
        <ele>219</ele>
        <time>2020-12-13T21:38:15Z</time>
      </trkpt>
      <trkpt lat="44.56093" lon="0.92019">
        <ele>224</ele>
        <time>2020-12-13T21:38:22Z</time>
      </trkpt>
      <trkpt lat="44.5621" lon="0.91994">
        <ele>230</ele>
        <time>2020-12-13T21:38:50Z</time>
      </trkpt>
      <trkpt lat="44.56332" lon="0.91958">
        <ele>228</ele>
        <time>2020-12-13T21:39:19Z</time>
      </trkpt>
      <trkpt lat="44.56445" lon="0.91882">
        <ele>219</ele>
        <time>2020-12-13T21:39:48Z</time>
      </trkpt>
      <trkpt lat="44.56441" lon="0.91819">
        <ele>219</ele>
        <time>2020-12-13T21:39:59Z</time>
      </trkpt>
      <trkpt lat="44.56426" lon="0.91749">
        <ele>217</ele>
        <time>2020-12-13T21:40:11Z</time>
      </trkpt>
      <trkpt lat="44.56387" lon="0.91662">
        <ele>212</ele>
        <time>2020-12-13T21:40:28Z</time>
      </trkpt>
      <trkpt lat="44.56305" lon="0.91619">
        <ele>214</ele>
        <time>2020-12-13T21:40:49Z</time>
      </trkpt>
      <trkpt lat="44.56217" lon="0.91588">
        <ele>217</ele>
        <time>2020-12-13T21:41:10Z</time>
      </trkpt>
      <trkpt lat="44.56257" lon="0.91402">
        <ele>214</ele>
        <time>2020-12-13T21:41:42Z</time>
      </trkpt>
      <trkpt lat="44.56224" lon="0.91254">
        <ele>204</ele>
        <time>2020-12-13T21:42:08Z</time>
      </trkpt>
      <trkpt lat="44.56184" lon="0.91191">
        <ele>199</ele>
        <time>2020-12-13T21:42:22Z</time>
      </trkpt>
      <trkpt lat="44.56178" lon="0.91148">
        <ele>196</ele>
        <time>2020-12-13T21:42:29Z</time>
      </trkpt>
      <trkpt lat="44.56157" lon="0.91047">
        <ele>197</ele>
        <time>2020-12-13T21:42:47Z</time>
      </trkpt>
      <trkpt lat="44.56117" lon="0.90978">
        <ele>206</ele>
        <time>2020-12-13T21:43:01Z</time>
      </trkpt>
      <trkpt lat="44.56079" lon="0.90798">
        <ele>215</ele>
        <time>2020-12-13T21:43:33Z</time>
      </trkpt>
      <trkpt lat="44.56122" lon="0.9071">
        <ele>212</ele>
        <time>2020-12-13T21:43:50Z</time>
      </trkpt>
      <trkpt lat="44.56145" lon="0.90648">
        <ele>211</ele>
        <time>2020-12-13T21:44:02Z</time>
      </trkpt>
      <trkpt lat="44.56162" lon="0.90551">
        <ele>211</ele>
        <time>2020-12-13T21:44:19Z</time>
      </trkpt>
      <trkpt lat="44.56199" lon="0.90451">
        <ele>211</ele>
        <time>2020-12-13T21:44:37Z</time>
      </trkpt>
      <trkpt lat="44.56237" lon="0.90368">
        <ele>209</ele>
        <time>2020-12-13T21:44:54Z</time>
      </trkpt>
      <trkpt lat="44.56202" lon="0.90262">
        <ele>207</ele>
        <time>2020-12-13T21:45:13Z</time>
      </trkpt>
      <trkpt lat="44.56166" lon="0.90129">
        <ele>204</ele>
        <time>2020-12-13T21:45:37Z</time>
      </trkpt>
      <trkpt lat="44.56122" lon="0.89982">
        <ele>194</ele>
        <time>2020-12-13T21:46:04Z</time>
      </trkpt>
      <trkpt lat="44.56156" lon="0.89914">
        <ele>194</ele>
        <time>2020-12-13T21:46:17Z</time>
      </trkpt>
      <trkpt lat="44.5621" lon="0.8984">
        <ele>185</ele>
        <time>2020-12-13T21:46:35Z</time>
      </trkpt>
      <trkpt lat="44.56248" lon="0.89703">
        <ele>182</ele>
        <time>2020-12-13T21:46:59Z</time>
      </trkpt>
      <trkpt lat="44.56237" lon="0.89629">
        <ele>182</ele>
        <time>2020-12-13T21:47:12Z</time>
      </trkpt>
      <trkpt lat="44.56261" lon="0.89553">
        <ele>180</ele>
        <time>2020-12-13T21:47:26Z</time>
      </trkpt>
      <trkpt lat="44.56301" lon="0.89486">
        <ele>181</ele>
        <time>2020-12-13T21:47:40Z</time>
      </trkpt>
      <trkpt lat="44.56322" lon="0.89459">
        <ele>184</ele>
        <time>2020-12-13T21:47:47Z</time>
      </trkpt>
      <trkpt lat="44.56363" lon="0.89445">
        <ele>184</ele>
        <time>2020-12-13T21:47:57Z</time>
      </trkpt>
      <trkpt lat="44.56435" lon="0.89414">
        <ele>180</ele>
        <time>2020-12-13T21:48:14Z</time>
      </trkpt>
      <trkpt lat="44.56496" lon="0.89418">
        <ele>181</ele>
        <time>2020-12-13T21:48:29Z</time>
      </trkpt>
      <trkpt lat="44.56449" lon="0.89425">
        <ele>181</ele>
        <time>2020-12-13T21:48:40Z</time>
      </trkpt>
      <trkpt lat="44.56436" lon="0.89277">
        <ele>167</ele>
        <time>2020-12-13T21:49:05Z</time>
      </trkpt>
      <trkpt lat="44.56448" lon="0.89147">
        <ele>176</ele>
        <time>2020-12-13T21:49:26Z</time>
      </trkpt>
      <trkpt lat="44.56391" lon="0.89091">
        <ele>178</ele>
        <time>2020-12-13T21:49:43Z</time>
      </trkpt>
      <trkpt lat="44.56381" lon="0.89069">
        <ele>180</ele>
        <time>2020-12-13T21:49:47Z</time>
      </trkpt>
      <trkpt lat="44.56334" lon="0.8901">
        <ele>184</ele>
        <time>2020-12-13T21:50:02Z</time>
      </trkpt>
      <trkpt lat="44.56309" lon="0.88957">
        <ele>183</ele>
        <time>2020-12-13T21:50:12Z</time>
      </trkpt>
      <trkpt lat="44.56243" lon="0.88939">
        <ele>177</ele>
        <time>2020-12-13T21:50:28Z</time>
      </trkpt>
      <trkpt lat="44.56187" lon="0.88918">
        <ele>163</ele>
        <time>2020-12-13T21:50:42Z</time>
      </trkpt>
      <trkpt lat="44.56161" lon="0.88889">
        <ele>152</ele>
        <time>2020-12-13T21:50:49Z</time>
      </trkpt>
      <trkpt lat="44.56099" lon="0.88862">
        <ele>146</ele>
        <time>2020-12-13T21:51:04Z</time>
      </trkpt>
      <trkpt lat="44.56061" lon="0.88795">
        <ele>135</ele>
        <time>2020-12-13T21:51:19Z</time>
      </trkpt>
      <trkpt lat="44.56025" lon="0.8877">
        <ele>133</ele>
        <time>2020-12-13T21:51:28Z</time>
      </trkpt>
      <trkpt lat="44.56046" lon="0.88716">
        <ele>126</ele>
        <time>2020-12-13T21:51:38Z</time>
      </trkpt>
      <trkpt lat="44.56036" lon="0.88681">
        <ele>126</ele>
        <time>2020-12-13T21:51:45Z</time>
      </trkpt>
      <trkpt lat="44.55973" lon="0.88539">
        <ele>132</ele>
        <time>2020-12-13T21:52:12Z</time>
      </trkpt>
      <trkpt lat="44.55906" lon="0.88438">
        <ele>124</ele>
        <time>2020-12-13T21:52:35Z</time>
      </trkpt>
      <trkpt lat="44.55792" lon="0.8833">
        <ele>133</ele>
        <time>2020-12-13T21:53:07Z</time>
      </trkpt>
      <trkpt lat="44.5577" lon="0.88349">
        <ele>134</ele>
        <time>2020-12-13T21:53:14Z</time>
      </trkpt>
      <trkpt lat="44.55721" lon="0.8842">
        <ele>127</ele>
        <time>2020-12-13T21:53:30Z</time>
      </trkpt>
      <trkpt lat="44.55667" lon="0.88413">
        <ele>132</ele>
        <time>2020-12-13T21:53:43Z</time>
      </trkpt>
      <trkpt lat="44.55692" lon="0.88326">
        <ele>138</ele>
        <time>2020-12-13T21:53:58Z</time>
      </trkpt>
      <trkpt lat="44.55748" lon="0.88243">
        <ele>146</ele>
        <time>2020-12-13T21:54:17Z</time>
      </trkpt>
      <trkpt lat="44.5581" lon="0.88144">
        <ele>156</ele>
        <time>2020-12-13T21:54:39Z</time>
      </trkpt>
      <trkpt lat="44.5587" lon="0.87938">
        <ele>169</ele>
        <time>2020-12-13T21:55:16Z</time>
      </trkpt>
      <trkpt lat="44.55837" lon="0.87884">
        <ele>176</ele>
        <time>2020-12-13T21:55:28Z</time>
      </trkpt>
      <trkpt lat="44.55833" lon="0.87812">
        <ele>179</ele>
        <time>2020-12-13T21:55:40Z</time>
      </trkpt>
      <trkpt lat="44.55692" lon="0.87667">
        <ele>170</ele>
        <time>2020-12-13T21:56:21Z</time>
      </trkpt>
      <trkpt lat="44.55715" lon="0.87503">
        <ele>170</ele>
        <time>2020-12-13T21:56:49Z</time>
      </trkpt>
      <trkpt lat="44.55657" lon="0.87431">
        <ele>167</ele>
        <time>2020-12-13T21:57:07Z</time>
      </trkpt>
      <trkpt lat="44.55737" lon="0.87343">
        <ele>166</ele>
        <time>2020-12-13T21:57:31Z</time>
      </trkpt>
      <trkpt lat="44.55796" lon="0.87283">
        <ele>168</ele>
        <time>2020-12-13T21:57:48Z</time>
      </trkpt>
      <trkpt lat="44.55884" lon="0.87269">
        <ele>175</ele>
        <time>2020-12-13T21:58:08Z</time>
      </trkpt>
      <trkpt lat="44.5605" lon="0.87265">
        <ele>189</ele>
        <time>2020-12-13T21:58:47Z</time>
      </trkpt>
      <trkpt lat="44.5618" lon="0.8727">
        <ele>190</ele>
        <time>2020-12-13T21:59:17Z</time>
      </trkpt>
      <trkpt lat="44.56248" lon="0.8726">
        <ele>193</ele>
        <time>2020-12-13T21:59:33Z</time>
      </trkpt>
      <trkpt lat="44.56338" lon="0.87243">
        <ele>197</ele>
        <time>2020-12-13T21:59:55Z</time>
      </trkpt>
      <trkpt lat="44.565" lon="0.87204">
        <ele>202</ele>
        <time>2020-12-13T22:00:33Z</time>
      </trkpt>
      <trkpt lat="44.56638" lon="0.87204">
        <ele>203</ele>
        <time>2020-12-13T22:01:05Z</time>
      </trkpt>
      <trkpt lat="44.56765" lon="0.87171">
        <ele>203</ele>
        <time>2020-12-13T22:01:35Z</time>
      </trkpt>
      <trkpt lat="44.56888" lon="0.87151">
        <ele>201</ele>
        <time>2020-12-13T22:02:04Z</time>
      </trkpt>
      <trkpt lat="44.56996" lon="0.87137">
        <ele>203</ele>
        <time>2020-12-13T22:02:30Z</time>
      </trkpt>
      <trkpt lat="44.57066" lon="0.87101">
        <ele>203</ele>
        <time>2020-12-13T22:02:47Z</time>
      </trkpt>
      <trkpt lat="44.57124" lon="0.87027">
        <ele>202</ele>
        <time>2020-12-13T22:03:05Z</time>
      </trkpt>
      <trkpt lat="44.57178" lon="0.86974">
        <ele>201</ele>
        <time>2020-12-13T22:03:21Z</time>
      </trkpt>
      <trkpt lat="44.57219" lon="0.86895">
        <ele>201</ele>
        <time>2020-12-13T22:03:37Z</time>
      </trkpt>
      <trkpt lat="44.57259" lon="0.86729">
        <ele>205</ele>
        <time>2020-12-13T22:04:06Z</time>
      </trkpt>
      <trkpt lat="44.57354" lon="0.86449">
        <ele>207</ele>
        <time>2020-12-13T22:04:58Z</time>
      </trkpt>
      <trkpt lat="44.57334" lon="0.86361">
        <ele>205</ele>
        <time>2020-12-13T22:05:13Z</time>
      </trkpt>
      <trkpt lat="44.5732" lon="0.86231">
        <ele>199</ele>
        <time>2020-12-13T22:05:35Z</time>
      </trkpt>
      <trkpt lat="44.57318" lon="0.86094">
        <ele>198</ele>
        <time>2020-12-13T22:05:58Z</time>
      </trkpt>
      <trkpt lat="44.57336" lon="0.86007">
        <ele>194</ele>
        <time>2020-12-13T22:06:13Z</time>
      </trkpt>
      <trkpt lat="44.57364" lon="0.8602">
        <ele>195</ele>
        <time>2020-12-13T22:06:20Z</time>
      </trkpt>
      <trkpt lat="44.57422" lon="0.86063">
        <ele>196</ele>
        <time>2020-12-13T22:06:35Z</time>
      </trkpt>
      <trkpt lat="44.57498" lon="0.86074">
        <ele>192</ele>
        <time>2020-12-13T22:06:53Z</time>
      </trkpt>
      <trkpt lat="44.57601" lon="0.8604">
        <ele>191</ele>
        <time>2020-12-13T22:07:18Z</time>
      </trkpt>
      <trkpt lat="44.57863" lon="0.85915">
        <ele>184</ele>
        <time>2020-12-13T22:08:22Z</time>
      </trkpt>
      <trkpt lat="44.57968" lon="0.85861">
        <ele>181</ele>
        <time>2020-12-13T22:08:48Z</time>
      </trkpt>
      <trkpt lat="44.58162" lon="0.85755">
        <ele>184</ele>
        <time>2020-12-13T22:09:37Z</time>
      </trkpt>
      <trkpt lat="44.58238" lon="0.85619">
        <ele>184</ele>
        <time>2020-12-13T22:10:06Z</time>
      </trkpt>
      <trkpt lat="44.58415" lon="0.85554">
        <ele>189</ele>
        <time>2020-12-13T22:10:48Z</time>
      </trkpt>
      <trkpt lat="44.58498" lon="0.8548">
        <ele>190</ele>
        <time>2020-12-13T22:11:11Z</time>
      </trkpt>
      <trkpt lat="44.58553" lon="0.85475">
        <ele>187</ele>
        <time>2020-12-13T22:11:24Z</time>
      </trkpt>
      <trkpt lat="44.58947" lon="0.85562">
        <ele>183</ele>
        <time>2020-12-13T22:12:57Z</time>
      </trkpt>
      <trkpt lat="44.58954" lon="0.85491">
        <ele>182</ele>
        <time>2020-12-13T22:13:09Z</time>
      </trkpt>
      <trkpt lat="44.58836" lon="0.85406">
        <ele>181</ele>
        <time>2020-12-13T22:13:40Z</time>
      </trkpt>
      <trkpt lat="44.5886" lon="0.85365">
        <ele>178</ele>
        <time>2020-12-13T22:13:49Z</time>
      </trkpt>
      <trkpt lat="44.58914" lon="0.85296">
        <ele>175</ele>
        <time>2020-12-13T22:14:06Z</time>
      </trkpt>
      <trkpt lat="44.58973" lon="0.85233">
        <ele>171</ele>
        <time>2020-12-13T22:14:23Z</time>
      </trkpt>
      <trkpt lat="44.59008" lon="0.8519">
        <ele>171</ele>
        <time>2020-12-13T22:14:34Z</time>
      </trkpt>
      <trkpt lat="44.59139" lon="0.85145">
        <ele>167</ele>
        <time>2020-12-13T22:15:06Z</time>
      </trkpt>
      <trkpt lat="44.5922" lon="0.85083">
        <ele>164</ele>
        <time>2020-12-13T22:15:27Z</time>
      </trkpt>
      <trkpt lat="44.59267" lon="0.8506">
        <ele>163</ele>
        <time>2020-12-13T22:15:39Z</time>
      </trkpt>
      <trkpt lat="44.59317" lon="0.85011">
        <ele>164</ele>
        <time>2020-12-13T22:15:53Z</time>
      </trkpt>
      <trkpt lat="44.59342" lon="0.8497">
        <ele>164</ele>
        <time>2020-12-13T22:16:02Z</time>
      </trkpt>
      <trkpt lat="44.59404" lon="0.84856">
        <ele>163</ele>
        <time>2020-12-13T22:16:26Z</time>
      </trkpt>
      <trkpt lat="44.59396" lon="0.84829">
        <ele>162</ele>
        <time>2020-12-13T22:16:31Z</time>
      </trkpt>
      <trkpt lat="44.59446" lon="0.84771">
        <ele>162</ele>
        <time>2020-12-13T22:16:46Z</time>
      </trkpt>
      <trkpt lat="44.5943" lon="0.84694">
        <ele>161</ele>
        <time>2020-12-13T22:16:59Z</time>
      </trkpt>
      <trkpt lat="44.59412" lon="0.84623">
        <ele>162</ele>
        <time>2020-12-13T22:17:12Z</time>
      </trkpt>
      <trkpt lat="44.59391" lon="0.84567">
        <ele>159</ele>
        <time>2020-12-13T22:17:22Z</time>
      </trkpt>
      <trkpt lat="44.59395" lon="0.84542">
        <ele>158</ele>
        <time>2020-12-13T22:17:27Z</time>
      </trkpt>
      <trkpt lat="44.59442" lon="0.84499">
        <ele>158</ele>
        <time>2020-12-13T22:17:40Z</time>
      </trkpt>
      <trkpt lat="44.59612" lon="0.84329">
        <ele>157</ele>
        <time>2020-12-13T22:18:29Z</time>
      </trkpt>
      <trkpt lat="44.59716" lon="0.84199">
        <ele>152</ele>
        <time>2020-12-13T22:19:01Z</time>
      </trkpt>
      <trkpt lat="44.59752" lon="0.84134">
        <ele>148</ele>
        <time>2020-12-13T22:19:15Z</time>
      </trkpt>
      <trkpt lat="44.59821" lon="0.84042">
        <ele>146</ele>
        <time>2020-12-13T22:19:37Z</time>
      </trkpt>
      <trkpt lat="44.59848" lon="0.84001">
        <ele>144</ele>
        <time>2020-12-13T22:19:46Z</time>
      </trkpt>
      <trkpt lat="44.59871" lon="0.84042">
        <ele>145</ele>
        <time>2020-12-13T22:19:55Z</time>
      </trkpt>
      <trkpt lat="44.59955" lon="0.84237">
        <ele>142</ele>
        <time>2020-12-13T22:20:33Z</time>
      </trkpt>
      <trkpt lat="44.59982" lon="0.84253">
        <ele>140</ele>
        <time>2020-12-13T22:20:40Z</time>
      </trkpt>
      <trkpt lat="44.60052" lon="0.84255">
        <ele>134</ele>
        <time>2020-12-13T22:20:56Z</time>
      </trkpt>
      <trkpt lat="44.60083" lon="0.84308">
        <ele>134</ele>
        <time>2020-12-13T22:21:07Z</time>
      </trkpt>
      <trkpt lat="44.60111" lon="0.84281">
        <ele>132</ele>
        <time>2020-12-13T22:21:15Z</time>
      </trkpt>
      <trkpt lat="44.60129" lon="0.84358">
        <ele>138</ele>
        <time>2020-12-13T22:21:29Z</time>
      </trkpt>
      <trkpt lat="44.60128" lon="0.84445">
        <ele>148</ele>
        <time>2020-12-13T22:21:43Z</time>
      </trkpt>
      <trkpt lat="44.60151" lon="0.84582">
        <ele>156</ele>
        <time>2020-12-13T22:22:07Z</time>
      </trkpt>
      <trkpt lat="44.60096" lon="0.84714">
        <ele>161</ele>
        <time>2020-12-13T22:22:32Z</time>
      </trkpt>
      <trkpt lat="44.60083" lon="0.84788">
        <ele>165</ele>
        <time>2020-12-13T22:22:45Z</time>
      </trkpt>
      <trkpt lat="44.60078" lon="0.84954">
        <ele>173</ele>
        <time>2020-12-13T22:23:12Z</time>
      </trkpt>
      <trkpt lat="44.6005" lon="0.85132">
        <ele>175</ele>
        <time>2020-12-13T22:23:43Z</time>
      </trkpt>
      <trkpt lat="44.59986" lon="0.85316">
        <ele>177</ele>
        <time>2020-12-13T22:24:17Z</time>
      </trkpt>
      <trkpt lat="44.59914" lon="0.85475">
        <ele>183</ele>
        <time>2020-12-13T22:24:48Z</time>
      </trkpt>
      <trkpt lat="44.59852" lon="0.85632">
        <ele>186</ele>
        <time>2020-12-13T22:25:18Z</time>
      </trkpt>
      <trkpt lat="44.59836" lon="0.85782">
        <ele>186</ele>
        <time>2020-12-13T22:25:43Z</time>
      </trkpt>
      <trkpt lat="44.59842" lon="0.85892">
        <ele>183</ele>
        <time>2020-12-13T22:26:02Z</time>
      </trkpt>
      <trkpt lat="44.59852" lon="0.85946">
        <ele>183</ele>
        <time>2020-12-13T22:26:11Z</time>
      </trkpt>
      <trkpt lat="44.59876" lon="0.86031">
        <ele>185</ele>
        <time>2020-12-13T22:26:26Z</time>
      </trkpt>
      <trkpt lat="44.59888" lon="0.8611">
        <ele>187</ele>
        <time>2020-12-13T22:26:39Z</time>
      </trkpt>
      <trkpt lat="44.59889" lon="0.86152">
        <ele>188</ele>
        <time>2020-12-13T22:26:46Z</time>
      </trkpt>
      <trkpt lat="44.59903" lon="0.86179">
        <ele>189</ele>
        <time>2020-12-13T22:26:52Z</time>
      </trkpt>
      <trkpt lat="44.59948" lon="0.86173">
        <ele>189</ele>
        <time>2020-12-13T22:27:03Z</time>
      </trkpt>
      <trkpt lat="44.60043" lon="0.86173">
        <ele>189</ele>
        <time>2020-12-13T22:27:25Z</time>
      </trkpt>
      <trkpt lat="44.60073" lon="0.86161">
        <ele>189</ele>
        <time>2020-12-13T22:27:32Z</time>
      </trkpt>
      <trkpt lat="44.60198" lon="0.86126">
        <ele>186</ele>
        <time>2020-12-13T22:28:02Z</time>
      </trkpt>
      <trkpt lat="44.60218" lon="0.86155">
        <ele>186</ele>
        <time>2020-12-13T22:28:08Z</time>
      </trkpt>
      <trkpt lat="44.60254" lon="0.86199">
        <ele>184</ele>
        <time>2020-12-13T22:28:20Z</time>
      </trkpt>
      <trkpt lat="44.603" lon="0.86319">
        <ele>179</ele>
        <time>2020-12-13T22:28:42Z</time>
      </trkpt>
      <trkpt lat="44.60308" lon="0.86348">
        <ele>178</ele>
        <time>2020-12-13T22:28:47Z</time>
      </trkpt>
      <trkpt lat="44.60275" lon="0.86417">
        <ele>179</ele>
        <time>2020-12-13T22:29:01Z</time>
      </trkpt>
      <trkpt lat="44.60251" lon="0.86493">
        <ele>177</ele>
        <time>2020-12-13T22:29:15Z</time>
      </trkpt>
      <trkpt lat="44.60281" lon="0.86509">
        <ele>175</ele>
        <time>2020-12-13T22:29:23Z</time>
      </trkpt>
      <trkpt lat="44.60318" lon="0.86552">
        <ele>173</ele>
        <time>2020-12-13T22:29:34Z</time>
      </trkpt>
      <trkpt lat="44.60327" lon="0.8661">
        <ele>172</ele>
        <time>2020-12-13T22:29:44Z</time>
      </trkpt>
      <trkpt lat="44.60325" lon="0.86671">
        <ele>171</ele>
        <time>2020-12-13T22:29:54Z</time>
      </trkpt>
      <trkpt lat="44.60312" lon="0.86753">
        <ele>171</ele>
        <time>2020-12-13T22:30:08Z</time>
      </trkpt>
      <trkpt lat="44.60402" lon="0.86755">
        <ele>170</ele>
        <time>2020-12-13T22:30:29Z</time>
      </trkpt>
      <trkpt lat="44.60474" lon="0.86726">
        <ele>175</ele>
        <time>2020-12-13T22:30:46Z</time>
      </trkpt>
      <trkpt lat="44.6052" lon="0.86665">
        <ele>179</ele>
        <time>2020-12-13T22:31:01Z</time>
      </trkpt>
      <trkpt lat="44.60597" lon="0.86694">
        <ele>186</ele>
        <time>2020-12-13T22:31:20Z</time>
      </trkpt>
      <trkpt lat="44.60641" lon="0.86687">
        <ele>187</ele>
        <time>2020-12-13T22:31:30Z</time>
      </trkpt>
      <trkpt lat="44.60695" lon="0.86694">
        <ele>189</ele>
        <time>2020-12-13T22:31:43Z</time>
      </trkpt>
      <trkpt lat="44.60726" lon="0.86726">
        <ele>191</ele>
        <time>2020-12-13T22:31:52Z</time>
      </trkpt>
      <trkpt lat="44.60787" lon="0.86755">
        <ele>193</ele>
        <time>2020-12-13T22:32:07Z</time>
      </trkpt>
      <trkpt lat="44.60828" lon="0.86791">
        <ele>192</ele>
        <time>2020-12-13T22:32:18Z</time>
      </trkpt>
      <trkpt lat="44.60885" lon="0.86744">
        <ele>191</ele>
        <time>2020-12-13T22:32:33Z</time>
      </trkpt>
      <trkpt lat="44.60892" lon="0.86734">
        <ele>190</ele>
        <time>2020-12-13T22:32:36Z</time>
      </trkpt>
      <trkpt lat="44.61054" lon="0.86633">
        <ele>190</ele>
        <time>2020-12-13T22:33:17Z</time>
      </trkpt>
      <trkpt lat="44.61119" lon="0.86604">
        <ele>188</ele>
        <time>2020-12-13T22:33:33Z</time>
      </trkpt>
      <trkpt lat="44.61155" lon="0.86542">
        <ele>187</ele>
        <time>2020-12-13T22:33:46Z</time>
      </trkpt>
      <trkpt lat="44.61137" lon="0.86651">
        <ele>187</ele>
        <time>2020-12-13T22:34:05Z</time>
      </trkpt>
      <trkpt lat="44.61088" lon="0.86878">
        <ele>180</ele>
        <time>2020-12-13T22:34:44Z</time>
      </trkpt>
      <trkpt lat="44.61057" lon="0.8695">
        <ele>178</ele>
        <time>2020-12-13T22:34:58Z</time>
      </trkpt>
      <trkpt lat="44.61057" lon="0.86993">
        <ele>178</ele>
        <time>2020-12-13T22:35:06Z</time>
      </trkpt>
      <trkpt lat="44.61042" lon="0.87138">
        <ele>175</ele>
        <time>2020-12-13T22:35:30Z</time>
      </trkpt>
      <trkpt lat="44.61003" lon="0.87217">
        <ele>174</ele>
        <time>2020-12-13T22:35:46Z</time>
      </trkpt>
      <trkpt lat="44.6097" lon="0.87293">
        <ele>171</ele>
        <time>2020-12-13T22:36:01Z</time>
      </trkpt>
      <trkpt lat="44.60918" lon="0.87398">
        <ele>166</ele>
        <time>2020-12-13T22:36:22Z</time>
      </trkpt>
      <trkpt lat="44.60864" lon="0.87524">
        <ele>164</ele>
        <time>2020-12-13T22:36:46Z</time>
      </trkpt>
      <trkpt lat="44.60831" lon="0.87585">
        <ele>167</ele>
        <time>2020-12-13T22:36:59Z</time>
      </trkpt>
      <trkpt lat="44.60726" lon="0.87636">
        <ele>166</ele>
        <time>2020-12-13T22:37:25Z</time>
      </trkpt>
      <trkpt lat="44.60718" lon="0.87683">
        <ele>167</ele>
        <time>2020-12-13T22:37:33Z</time>
      </trkpt>
      <trkpt lat="44.60695" lon="0.87712">
        <ele>169</ele>
        <time>2020-12-13T22:37:40Z</time>
      </trkpt>
      <trkpt lat="44.60682" lon="0.87787">
        <ele>172</ele>
        <time>2020-12-13T22:37:53Z</time>
      </trkpt>
      <trkpt lat="44.60651" lon="0.87798">
        <ele>174</ele>
        <time>2020-12-13T22:38:01Z</time>
      </trkpt>
      <trkpt lat="44.60641" lon="0.87787">
        <ele>173</ele>
        <time>2020-12-13T22:38:04Z</time>
      </trkpt>
      <trkpt lat="44.60623" lon="0.87827">
        <ele>177</ele>
        <time>2020-12-13T22:38:12Z</time>
      </trkpt>
      <trkpt lat="44.606" lon="0.87867">
        <ele>182</ele>
        <time>2020-12-13T22:38:20Z</time>
      </trkpt>
      <trkpt lat="44.60589" lon="0.87878">
        <ele>184</ele>
        <time>2020-12-13T22:38:23Z</time>
      </trkpt>
      <trkpt lat="44.60605" lon="0.87961">
        <ele>189</ele>
        <time>2020-12-13T22:38:38Z</time>
      </trkpt>
      <trkpt lat="44.60646" lon="0.88011">
        <ele>189</ele>
        <time>2020-12-13T22:38:50Z</time>
      </trkpt>
      <trkpt lat="44.60664" lon="0.88083">
        <ele>194</ele>
        <time>2020-12-13T22:39:03Z</time>
      </trkpt>
      <trkpt lat="44.60715" lon="0.88155">
        <ele>199</ele>
        <time>2020-12-13T22:39:20Z</time>
      </trkpt>
      <trkpt lat="44.60831" lon="0.88163">
        <ele>199</ele>
        <time>2020-12-13T22:39:47Z</time>
      </trkpt>
      <trkpt lat="44.60836" lon="0.88238">
        <ele>203</ele>
        <time>2020-12-13T22:39:59Z</time>
      </trkpt>
      <trkpt lat="44.60837" lon="0.8831">
        <ele>208</ele>
        <time>2020-12-13T22:40:11Z</time>
      </trkpt>
      <trkpt lat="44.60841" lon="0.88351">
        <ele>210</ele>
        <time>2020-12-13T22:40:18Z</time>
      </trkpt>
      <trkpt lat="44.60898" lon="0.88369">
        <ele>210</ele>
        <time>2020-12-13T22:40:32Z</time>
      </trkpt>
      <trkpt lat="44.60937" lon="0.88376">
        <ele>210</ele>
        <time>2020-12-13T22:40:41Z</time>
      </trkpt>
      <trkpt lat="44.6094" lon="0.88413">
        <ele>209</ele>
        <time>2020-12-13T22:40:47Z</time>
      </trkpt>
      <trkpt lat="44.60977" lon="0.88422">
        <ele>207</ele>
        <time>2020-12-13T22:40:56Z</time>
      </trkpt>
      <trkpt lat="44.60993" lon="0.88496">
        <ele>198</ele>
        <time>2020-12-13T22:41:09Z</time>
      </trkpt>
      <trkpt lat="44.61027" lon="0.88548">
        <ele>195</ele>
        <time>2020-12-13T22:41:21Z</time>
      </trkpt>
      <trkpt lat="44.61038" lon="0.88586">
        <ele>193</ele>
        <time>2020-12-13T22:41:27Z</time>
      </trkpt>
      <trkpt lat="44.61033" lon="0.88707">
        <ele>191</ele>
        <time>2020-12-13T22:41:48Z</time>
      </trkpt>
      <trkpt lat="44.6103" lon="0.88734">
        <ele>191</ele>
        <time>2020-12-13T22:41:52Z</time>
      </trkpt>
      <trkpt lat="44.60997" lon="0.88763">
        <ele>191</ele>
        <time>2020-12-13T22:42:01Z</time>
      </trkpt>
      <trkpt lat="44.60963" lon="0.88788">
        <ele>190</ele>
        <time>2020-12-13T22:42:10Z</time>
      </trkpt>
      <trkpt lat="44.60899" lon="0.88851">
        <ele>186</ele>
        <time>2020-12-13T22:42:28Z</time>
      </trkpt>
      <trkpt lat="44.60849" lon="0.88876">
        <ele>188</ele>
        <time>2020-12-13T22:42:41Z</time>
      </trkpt>
      <trkpt lat="44.60808" lon="0.88907">
        <ele>188</ele>
        <time>2020-12-13T22:42:52Z</time>
      </trkpt>
      <trkpt lat="44.60745" lon="0.88943">
        <ele>186</ele>
        <time>2020-12-13T22:43:08Z</time>
      </trkpt>
      <trkpt lat="44.60672" lon="0.88977">
        <ele>185</ele>
        <time>2020-12-13T22:43:26Z</time>
      </trkpt>
      <trkpt lat="44.60525" lon="0.89035">
        <ele>180</ele>
        <time>2020-12-13T22:44:01Z</time>
      </trkpt>
      <trkpt lat="44.60457" lon="0.89071">
        <ele>178</ele>
        <time>2020-12-13T22:44:18Z</time>
      </trkpt>
      <trkpt lat="44.60327" lon="0.89167">
        <ele>172</ele>
        <time>2020-12-13T22:44:53Z</time>
      </trkpt>
      <trkpt lat="44.60278" lon="0.89241">
        <ele>174</ele>
        <time>2020-12-13T22:45:09Z</time>
      </trkpt>
      <trkpt lat="44.60244" lon="0.89246">
        <ele>174</ele>
        <time>2020-12-13T22:45:17Z</time>
      </trkpt>
      <trkpt lat="44.60187" lon="0.89273">
        <ele>172</ele>
        <time>2020-12-13T22:45:31Z</time>
      </trkpt>
      <trkpt lat="44.60167" lon="0.89306">
        <ele>172</ele>
        <time>2020-12-13T22:45:39Z</time>
      </trkpt>
      <trkpt lat="44.60152" lon="0.89306">
        <ele>173</ele>
        <time>2020-12-13T22:45:42Z</time>
      </trkpt>
      <trkpt lat="44.60135" lon="0.8933">
        <ele>174</ele>
        <time>2020-12-13T22:45:48Z</time>
      </trkpt>
      <trkpt lat="44.60131" lon="0.89352">
        <ele>173</ele>
        <time>2020-12-13T22:45:51Z</time>
      </trkpt>
      <trkpt lat="44.60124" lon="0.89369">
        <ele>173</ele>
        <time>2020-12-13T22:45:55Z</time>
      </trkpt>
      <trkpt lat="44.60116" lon="0.89403">
        <ele>172</ele>
        <time>2020-12-13T22:46:01Z</time>
      </trkpt>
      <trkpt lat="44.60097" lon="0.8945">
        <ele>172</ele>
        <time>2020-12-13T22:46:10Z</time>
      </trkpt>
      <trkpt lat="44.60079" lon="0.89482">
        <ele>173</ele>
        <time>2020-12-13T22:46:16Z</time>
      </trkpt>
      <trkpt lat="44.60072" lon="0.89501">
        <ele>173</ele>
        <time>2020-12-13T22:46:20Z</time>
        <extensions>
          <visugpx:TrkExtension xmlns:visugpx="https://www.visugpx.com/editgpx/">
            <visugpx:node>1</visugpx:node>
            </visugpx:TrkExtension>
        </extensions>
      </trkpt>
    </trkseg>
  </trk>
</gpx>